Time;durP1;ratioP1;P1;durP2;ratioP2;P2;SDS_P1;SDS_P2;PMS_P1;PMS_P2;Temp;Humidity;BMP_temperature;BMP_pressure;BME280_temperature;BME280_humidity;BME280_pressure;Samples;Min_cycle;Max_cycle;Signal;HPM_P1;HPM_P2
2023/07/13 00:01:15;;;;;;;2.07;1.90;;;15.60;99.90;;;;;;473027;250;28841;-78
2023/07/13 00:03:17;;;;;;;4.83;2.23;;;15.60;99.90;;;;;;473011;250;29263;-79
2023/07/13 00:05:17;;;;;;;2.27;2.07;;;15.60;99.90;;;;;;472961;250;29344;-79
2023/07/13 00:07:21;;;;;;;2.27;2.07;;;15.50;99.90;;;;;;473017;250;29537;-77
2023/07/13 00:09:23;;;;;;;1.77;1.67;;;15.40;99.90;;;;;;472990;250;28820;-77
2023/07/13 00:11:24;;;;;;;2.10;2.00;;;15.30;99.90;;;;;;472936;250;29310;-80
2023/07/13 00:13:25;;;;;;;3.70;1.83;;;15.30;99.90;;;;;;472990;250;28867;-79
2023/07/13 00:15:26;;;;;;;1.80;1.70;;;15.30;99.90;;;;;;472930;250;28778;-80
2023/07/13 00:17:27;;;;;;;4.13;2.37;;;15.20;99.90;;;;;;472963;250;28823;-79
2023/07/13 00:19:29;;;;;;;2.37;2.07;;;15.20;99.90;;;;;;473014;250;28809;-77
2023/07/13 00:21:30;;;;;;;2.23;1.97;;;15.20;99.90;;;;;;472987;250;29229;-79
2023/07/13 00:23:33;;;;;;;5.37;2.20;;;15.10;99.90;;;;;;473034;250;29395;-77
2023/07/13 00:25:32;;;;;;;2.27;2.07;;;15.10;99.90;;;;;;472910;251;30148;-80
2023/07/13 00:27:34;;;;;;;3.10;2.43;;;15.10;99.90;;;;;;473031;250;29345;-78
2023/07/13 00:29:35;;;;;;;2.30;2.10;;;15.10;99.90;;;;;;473032;250;28832;-78
2023/07/13 00:31:36;;;;;;;2.10;1.83;;;15.00;99.90;;;;;;473037;250;28784;-79
2023/07/13 00:33:38;;;;;;;2.60;2.10;;;14.90;99.90;;;;;;472929;250;28827;-80
2023/07/13 00:35:39;;;;;;;2.93;2.20;;;14.90;99.90;;;;;;472974;250;28811;-81
2023/07/13 00:37:40;;;;;;;2.60;2.03;;;14.80;99.90;;;;;;472960;250;28775;-81
2023/07/13 00:39:41;;;;;;;6.37;2.83;;;14.80;99.90;;;;;;473030;250;28824;-78
2023/07/13 00:41:44;;;;;;;3.70;2.57;;;14.50;99.90;;;;;;473012;250;28845;-79
2023/07/13 00:43:44;;;;;;;2.37;2.10;;;14.30;99.90;;;;;;472910;250;28836;-78
2023/07/13 00:45:45;;;;;;;3.93;2.37;;;14.40;99.90;;;;;;473049;250;28819;-79
2023/07/13 00:47:46;;;;;;;3.47;2.53;;;14.40;99.90;;;;;;473034;250;29252;-77
2023/07/13 00:49:48;;;;;;;2.53;2.33;;;14.50;99.90;;;;;;473031;250;29321;-77
2023/07/13 00:51:49;;;;;;;2.53;2.00;;;14.50;99.90;;;;;;473006;250;29239;-80
2023/07/13 00:53:50;;;;;;;5.80;2.10;;;14.60;99.90;;;;;;472972;250;28814;-80
2023/07/13 00:55:51;;;;;;;2.30;2.10;;;14.60;99.90;;;;;;472960;250;28853;-79
2023/07/13 00:57:53;;;;;;;3.90;2.70;;;14.60;99.90;;;;;;473034;250;28858;-81
2023/07/13 00:59:54;;;;;;;2.70;2.43;;;14.50;99.90;;;;;;472965;250;28903;-78
2023/07/13 01:01:55;;;;;;;2.70;2.30;;;14.40;99.90;;;;;;472966;250;28856;-80
2023/07/13 01:03:56;;;;;;;3.30;2.50;;;14.20;99.90;;;;;;472972;250;28890;-78
2023/07/13 01:05:58;;;;;;;2.33;2.10;;;14.30;99.90;;;;;;473000;250;29257;-79
2023/07/13 01:07:59;;;;;;;2.70;2.30;;;14.30;99.90;;;;;;473006;250;28785;-78
2023/07/13 01:10:00;;;;;;;2.33;2.13;;;14.30;99.90;;;;;;472972;250;28901;-79
2023/07/13 01:12:01;;;;;;;2.90;2.10;;;14.20;99.90;;;;;;472978;250;29361;-78
2023/07/13 01:14:03;;;;;;;2.63;2.00;;;14.10;99.90;;;;;;472975;250;29440;-76
2023/07/13 01:16:04;;;;;;;2.30;2.03;;;14.10;99.90;;;;;;473001;250;29397;-77
2023/07/13 01:18:05;;;;;;;3.43;2.17;;;14.00;99.90;;;;;;472907;250;29235;-79
2023/07/13 01:20:08;;;;;;;2.20;2.00;;;14.00;99.90;;;;;;472994;250;28837;-78
2023/07/13 01:22:11;;;;;;;3.33;2.30;;;14.10;99.90;;;;;;472897;251;28899;-79
2023/07/13 01:24:12;;;;;;;6.33;2.97;;;14.10;99.90;;;;;;472923;250;28777;-79
2023/07/13 01:26:13;;;;;;;3.50;2.17;;;14.00;99.90;;;;;;472977;250;29301;-77
2023/07/13 01:28:16;;;;;;;4.03;2.20;;;13.90;99.90;;;;;;473067;250;29311;-78
2023/07/13 01:30:15;;;;;;;2.73;2.20;;;14.00;99.90;;;;;;472996;251;29300;-79
2023/07/13 01:32:21;;;;;;;2.50;2.10;;;13.90;99.90;;;;;;472995;250;29393;-78
2023/07/13 01:34:18;;;;;;;8.03;2.60;;;13.90;99.90;;;;;;472755;251;28845;-81
2023/07/13 01:36:21;;;;;;;6.60;2.77;;;13.90;99.90;;;;;;473083;250;28892;-81
2023/07/13 01:38:20;;;;;;;2.53;2.33;;;13.80;99.90;;;;;;473042;251;28820;-80
2023/07/13 01:40:22;;;;;;;2.50;2.20;;;13.90;99.90;;;;;;473077;250;28792;-81
2023/07/13 01:42:23;;;;;;;4.27;2.30;;;13.90;99.90;;;;;;472999;250;28823;-81
2023/07/13 01:44:25;;;;;;;7.90;2.60;;;13.90;99.90;;;;;;472990;250;28968;-80
2023/07/13 01:46:26;;;;;;;2.50;2.30;;;13.90;99.90;;;;;;473000;250;28485;-79
2023/07/13 01:48:27;;;;;;;2.40;2.23;;;13.90;99.90;;;;;;473055;250;28833;-77
2023/07/13 01:50:28;;;;;;;2.47;2.13;;;13.90;99.90;;;;;;473016;250;28514;-78
2023/07/13 01:52:29;;;;;;;2.20;1.97;;;13.90;99.90;;;;;;472975;250;29293;-80
2023/07/13 01:54:30;;;;;;;2.40;2.20;;;13.90;99.90;;;;;;472999;250;29896;-79
2023/07/13 01:56:32;;;;;;;3.53;2.47;;;13.90;99.90;;;;;;473037;250;29321;-78
2023/07/13 01:58:33;;;;;;;3.70;2.50;;;13.90;99.90;;;;;;473026;250;28820;-77
2023/07/13 02:00:34;;;;;;;2.20;2.00;;;13.90;99.90;;;;;;473045;250;28486;-80
2023/07/13 02:02:36;;;;;;;3.13;2.37;;;13.90;99.90;;;;;;473030;250;28537;-80
2023/07/13 02:04:37;;;;;;;2.90;2.40;;;14.00;99.90;;;;;;473054;251;28499;-80
2023/07/13 02:06:38;;;;;;;2.90;2.20;;;14.00;99.90;;;;;;473062;250;28808;-81
2023/07/13 02:08:39;;;;;;;6.93;3.37;;;14.10;99.90;;;;;;472970;250;28816;-78
2023/07/13 02:10:41;;;;;;;5.13;2.40;;;14.00;99.90;;;;;;472925;250;28564;-81
2023/07/13 02:12:42;;;;;;;2.27;2.10;;;14.00;99.90;;;;;;472964;250;28844;-79
2023/07/13 02:14:43;;;;;;;2.60;2.33;;;14.00;99.90;;;;;;472957;250;28511;-78
2023/07/13 02:16:44;;;;;;;4.70;2.20;;;14.00;99.90;;;;;;472962;250;29338;-78
2023/07/13 02:18:46;;;;;;;2.50;2.30;;;14.00;99.90;;;;;;472947;250;29299;-79
2023/07/13 02:20:47;;;;;;;2.90;2.70;;;14.00;99.90;;;;;;472933;250;29335;-78
2023/07/13 02:22:48;;;;;;;3.13;2.63;;;14.00;99.90;;;;;;472953;250;29312;-78
2023/07/13 02:24:49;;;;;;;3.40;2.47;;;14.00;99.90;;;;;;472946;250;28806;-79
2023/07/13 02:26:51;;;;;;;4.90;2.63;;;14.10;99.90;;;;;;472989;250;28904;-76
2023/07/13 02:28:52;;;;;;;2.77;2.57;;;14.10;99.90;;;;;;472819;251;28916;-80
2023/07/13 02:30:53;;;;;;;3.00;2.40;;;14.20;99.90;;;;;;472945;250;28830;-80
2023/07/13 02:32:54;;;;;;;2.83;2.30;;;14.20;99.90;;;;;;472949;250;28812;-78
2023/07/13 02:34:56;;;;;;;2.77;2.57;;;14.20;99.90;;;;;;472952;250;28559;-78
2023/07/13 02:36:57;;;;;;;2.57;2.37;;;14.20;99.90;;;;;;472958;250;28777;-80
2023/07/13 02:38:58;;;;;;;3.17;2.30;;;14.30;99.90;;;;;;472893;250;28850;-77
2023/07/13 02:40:59;;;;;;;2.60;2.10;;;14.20;99.90;;;;;;472950;250;28470;-78
2023/07/13 02:43:01;;;;;;;2.70;2.50;;;14.30;99.90;;;;;;472936;250;29299;-79
2023/07/13 02:45:02;;;;;;;5.03;2.33;;;14.20;99.90;;;;;;472934;250;29452;-76
2023/07/13 02:47:03;;;;;;;2.03;1.93;;;14.20;99.90;;;;;;473035;250;29237;-79
2023/07/13 02:49:04;;;;;;;2.80;2.30;;;14.20;99.90;;;;;;473042;250;28934;-76
2023/07/13 02:51:06;;;;;;;2.43;2.23;;;14.30;99.90;;;;;;473034;250;28773;-82
2023/07/13 02:53:07;;;;;;;2.50;2.20;;;14.30;99.90;;;;;;472989;250;28815;-78
2023/07/13 02:55:08;;;;;;;2.43;2.23;;;14.40;99.90;;;;;;472962;250;28926;-81
2023/07/13 02:57:09;;;;;;;4.63;2.67;;;14.30;99.90;;;;;;473045;250;28475;-78
2023/07/13 02:59:11;;;;;;;2.80;2.50;;;14.20;99.90;;;;;;472998;250;28422;-77
2023/07/13 03:01:12;;;;;;;2.23;2.03;;;14.30;99.90;;;;;;473044;250;28796;-77
2023/07/13 03:03:13;;;;;;;2.23;2.07;;;14.20;99.90;;;;;;472979;250;28823;-78
2023/07/13 03:05:14;;;;;;;2.70;2.37;;;14.30;99.90;;;;;;473021;250;28798;-76
2023/07/13 03:07:16;;;;;;;2.50;2.30;;;14.30;99.90;;;;;;473029;250;29286;-78
2023/07/13 03:09:17;;;;;;;2.40;2.20;;;14.30;99.90;;;;;;472989;250;29327;-77
2023/07/13 03:11:18;;;;;;;2.50;2.27;;;14.30;99.90;;;;;;472919;250;29401;-80
2023/07/13 03:13:19;;;;;;;4.40;2.40;;;14.20;99.90;;;;;;472937;249;28906;-77
2023/07/13 03:15:21;;;;;;;3.70;2.30;;;14.10;99.90;;;;;;472961;250;28856;-78
2023/07/13 03:17:22;;;;;;;3.77;2.33;;;14.10;99.90;;;;;;472987;250;28858;-77
2023/07/13 03:19:23;;;;;;;5.00;2.50;;;14.20;99.90;;;;;;472945;250;28873;-79
2023/07/13 03:21:24;;;;;;;2.30;2.10;;;14.20;99.90;;;;;;473048;250;28484;-79
2023/07/13 03:23:26;;;;;;;3.77;2.40;;;14.20;99.90;;;;;;473006;250;28827;-79
2023/07/13 03:25:27;;;;;;;3.97;2.70;;;14.20;99.90;;;;;;473071;250;28894;-77
2023/07/13 03:27:28;;;;;;;6.43;2.53;;;14.30;99.90;;;;;;473071;250;28982;-80
2023/07/13 03:29:29;;;;;;;3.10;2.60;;;14.30;99.90;;;;;;473036;250;29288;-78
2023/07/13 03:31:31;;;;;;;3.20;2.43;;;14.40;99.90;;;;;;473066;250;29241;-79
2023/07/13 03:33:32;;;;;;;3.50;2.23;;;14.40;99.90;;;;;;473041;250;29306;-79
2023/07/13 03:35:33;;;;;;;4.40;2.10;;;14.30;99.90;;;;;;472896;250;28825;-79
2023/07/13 03:37:34;;;;;;;3.53;2.60;;;14.40;99.90;;;;;;472975;250;28774;-79
2023/07/13 03:39:36;;;;;;;4.80;2.40;;;14.40;99.90;;;;;;472983;250;28820;-79
2023/07/13 03:41:37;;;;;;;3.20;2.47;;;14.40;99.90;;;;;;472973;250;28774;-81
2023/07/13 03:43:38;;;;;;;2.67;2.40;;;14.50;99.90;;;;;;473019;250;28934;-76
2023/07/13 03:45:39;;;;;;;2.63;2.43;;;14.50;99.90;;;;;;473059;250;28836;-77
2023/07/13 03:47:41;;;;;;;4.70;2.50;;;14.50;99.90;;;;;;473027;250;28778;-79
2023/07/13 03:49:42;;;;;;;4.73;2.40;;;14.50;99.90;;;;;;473030;250;29414;-79
2023/07/13 03:51:43;;;;;;;4.23;2.20;;;14.50;99.90;;;;;;472965;250;29383;-81
2023/07/13 03:53:44;;;;;;;2.90;2.47;;;14.40;99.90;;;;;;472978;250;29327;-79
2023/07/13 03:55:46;;;;;;;3.00;2.63;;;14.40;99.90;;;;;;472979;250;29399;-77
2023/07/13 03:57:48;;;;;;;2.57;2.37;;;14.30;99.90;;;;;;472946;250;28858;-80
2023/07/13 03:59:48;;;;;;;2.80;2.50;;;14.30;99.90;;;;;;472947;250;28907;-79
2023/07/13 04:01:49;;;;;;;2.60;2.40;;;14.30;99.90;;;;;;472945;250;28861;-81
2023/07/13 04:03:51;;;;;;;2.10;2.00;;;14.40;99.90;;;;;;472977;251;28898;-79
2023/07/13 04:05:52;;;;;;;3.07;2.50;;;14.30;99.90;;;;;;472939;250;28918;-78
2023/07/13 04:07:53;;;;;;;2.70;2.43;;;14.30;99.90;;;;;;472913;250;29305;-79
2023/07/13 04:09:54;;;;;;;3.00;2.60;;;14.30;99.90;;;;;;472880;250;28825;-78
2023/07/13 04:11:56;;;;;;;3.33;2.83;;;14.30;99.90;;;;;;472906;250;28877;-80
2023/07/13 04:13:57;;;;;;;2.90;2.60;;;14.10;99.90;;;;;;472964;250;28781;-80
2023/07/13 04:15:58;;;;;;;3.63;2.67;;;14.20;99.90;;;;;;472973;250;29441;-78
2023/07/13 04:17:59;;;;;;;4.13;2.83;;;14.20;99.90;;;;;;473023;250;29269;-79
2023/07/13 04:20:01;;;;;;;3.83;2.77;;;14.10;99.90;;;;;;472988;250;29365;-84
2023/07/13 04:22:02;;;;;;;3.10;2.13;;;14.10;99.90;;;;;;472978;251;29070;-80
2023/07/13 04:24:03;;;;;;;3.23;2.60;;;14.10;99.90;;;;;;473090;250;28883;-79
2023/07/13 04:26:04;;;;;;;4.00;2.70;;;14.00;99.90;;;;;;473047;250;28835;-79
2023/07/13 04:28:06;;;;;;;3.70;2.20;;;14.10;99.90;;;;;;473062;250;28785;-79
2023/07/13 04:30:07;;;;;;;2.50;2.27;;;14.10;99.90;;;;;;472982;250;28825;-79
2023/07/13 04:32:08;;;;;;;2.23;2.13;;;14.10;99.90;;;;;;472941;250;28464;-79
2023/07/13 04:34:09;;;;;;;2.90;2.70;;;14.20;99.90;;;;;;472999;250;28792;-80
2023/07/13 04:36:11;;;;;;;3.23;2.60;;;14.20;99.90;;;;;;472998;250;28849;-78
2023/07/13 04:38:12;;;;;;;2.50;2.30;;;14.30;99.90;;;;;;472951;250;28794;-79
2023/07/13 04:40:13;;;;;;;4.07;2.27;;;14.30;99.90;;;;;;473079;250;28831;-79
2023/07/13 04:42:14;;;;;;;5.20;2.50;;;14.20;99.90;;;;;;473063;250;29201;-78
2023/07/13 04:44:16;;;;;;;4.00;2.40;;;14.10;99.90;;;;;;473025;250;28849;-79
2023/07/13 04:46:20;;;;;;;8.53;2.77;;;14.20;99.90;;;;;;472997;250;28821;-79
2023/07/13 04:48:21;;;;;;;2.47;2.27;;;14.20;99.90;;;;;;473026;250;29454;-80
2023/07/13 04:50:23;;;;;;;2.80;2.60;;;14.20;99.90;;;;;;472976;250;28801;-79
2023/07/13 04:52:23;;;;;;;2.90;2.33;;;14.20;99.90;;;;;;472951;250;28890;-78
2023/07/13 04:54:25;;;;;;;2.37;2.27;;;14.20;99.90;;;;;;472983;250;28806;-80
2023/07/13 04:56:26;;;;;;;2.80;2.60;;;14.20;99.90;;;;;;473066;250;28783;-80
2023/07/13 04:58:27;;;;;;;4.57;2.40;;;14.30;99.90;;;;;;473050;250;28817;-80
2023/07/13 05:00:28;;;;;;;2.60;2.40;;;14.30;99.90;;;;;;472896;251;28830;-81
2023/07/13 05:02:31;;;;;;;3.90;2.30;;;14.40;99.90;;;;;;473034;250;28828;-78
2023/07/13 05:04:31;;;;;;;3.33;2.50;;;14.50;99.90;;;;;;472918;250;28857;-79
2023/07/13 05:06:32;;;;;;;2.87;2.53;;;14.50;99.90;;;;;;472992;250;29350;-81
2023/07/13 05:08:33;;;;;;;3.13;2.33;;;14.50;99.90;;;;;;472988;250;29326;-78
2023/07/13 05:10:35;;;;;;;2.97;2.50;;;14.60;99.90;;;;;;472941;250;28860;-81
2023/07/13 05:12:36;;;;;;;2.80;2.57;;;14.70;99.90;;;;;;472908;250;28914;-80
2023/07/13 05:14:37;;;;;;;2.60;2.40;;;14.70;99.90;;;;;;472980;250;28827;-80
2023/07/13 05:16:38;;;;;;;3.17;2.80;;;14.80;99.90;;;;;;473034;250;28899;-80
2023/07/13 05:18:40;;;;;;;4.13;2.43;;;14.80;99.90;;;;;;473002;250;28885;-79
2023/07/13 05:20:41;;;;;;;4.27;2.30;;;14.90;99.90;;;;;;473002;250;28785;-78
2023/07/13 05:22:42;;;;;;;2.87;2.60;;;15.00;99.90;;;;;;473024;250;28904;-80
2023/07/13 05:24:43;;;;;;;2.70;2.50;;;15.00;99.90;;;;;;472963;250;28890;-77
2023/07/13 05:26:45;;;;;;;3.80;2.50;;;15.00;99.90;;;;;;472942;250;28857;-80
2023/07/13 05:28:46;;;;;;;2.80;2.30;;;15.10;99.90;;;;;;472941;250;29408;-79
2023/07/13 05:30:47;;;;;;;2.70;2.50;;;15.10;99.90;;;;;;472963;250;30053;-80
2023/07/13 05:32:49;;;;;;;2.50;2.30;;;15.20;99.90;;;;;;472988;250;29333;-78
2023/07/13 05:34:50;;;;;;;2.23;2.03;;;15.20;99.90;;;;;;472983;250;29500;-77
2023/07/13 05:36:52;;;;;;;3.77;2.67;;;15.30;99.90;;;;;;473011;250;28868;-78
2023/07/13 05:38:52;;;;;;;2.27;2.07;;;15.30;99.90;;;;;;472989;250;28908;-78
2023/07/13 05:40:54;;;;;;;4.20;2.53;;;15.40;99.90;;;;;;473003;250;28907;-80
2023/07/13 05:42:55;;;;;;;2.33;2.13;;;15.40;99.90;;;;;;472954;251;28846;-80
2023/07/13 05:44:56;;;;;;;3.50;2.60;;;15.50;99.90;;;;;;473013;250;28846;-80
2023/07/13 05:46:57;;;;;;;4.57;2.60;;;15.50;99.90;;;;;;472984;250;28864;-81
2023/07/13 05:48:59;;;;;;;4.57;2.60;;;15.60;99.90;;;;;;472938;250;28929;-79
2023/07/13 05:51:00;;;;;;;2.60;2.27;;;15.70;99.90;;;;;;472959;250;28829;-79
2023/07/13 05:53:01;;;;;;;3.53;2.40;;;15.70;99.90;;;;;;472957;250;28893;-80
2023/07/13 05:55:02;;;;;;;2.47;2.17;;;15.70;99.90;;;;;;472986;250;29263;-81
2023/07/13 05:57:04;;;;;;;2.97;2.30;;;15.80;99.90;;;;;;472981;250;29231;-78
2023/07/13 05:59:05;;;;;;;6.10;2.40;;;15.90;99.90;;;;;;472913;250;29315;-80
2023/07/13 06:01:06;;;;;;;3.13;2.30;;;15.90;99.90;;;;;;472982;250;28897;-79
2023/07/13 06:03:07;;;;;;;12.00;3.00;;;16.00;99.90;;;;;;472931;250;28774;-83
2023/07/13 06:05:09;;;;;;;2.53;2.17;;;16.00;99.90;;;;;;472970;250;28843;-81
2023/07/13 06:07:10;;;;;;;6.23;2.50;;;16.00;99.90;;;;;;472968;250;28875;-80
2023/07/13 06:09:11;;;;;;;2.53;2.33;;;16.10;99.90;;;;;;472950;250;28825;-79
2023/07/13 06:11:12;;;;;;;3.43;2.10;;;16.10;99.90;;;;;;473001;250;28866;-79
2023/07/13 06:13:14;;;;;;;3.40;2.37;;;16.10;99.90;;;;;;472959;250;28798;-80
2023/07/13 06:15:15;;;;;;;3.90;2.70;;;16.20;99.90;;;;;;472976;250;28867;-79
2023/07/13 06:17:16;;;;;;;3.83;2.50;;;16.30;99.90;;;;;;472949;250;28771;-82
2023/07/13 06:19:17;;;;;;;6.90;2.47;;;16.30;99.90;;;;;;472803;250;30152;-79
2023/07/13 06:21:19;;;;;;;4.43;2.30;;;16.40;99.90;;;;;;473041;250;29319;-78
2023/07/13 06:23:20;;;;;;;2.50;2.30;;;16.50;99.90;;;;;;473000;250;29315;-78
2023/07/13 06:25:21;;;;;;;2.80;2.60;;;16.50;99.90;;;;;;472918;251;28800;-80
2023/07/13 06:27:22;;;;;;;5.23;2.60;;;16.60;99.90;;;;;;472960;250;28865;-81
2023/07/13 06:29:24;;;;;;;3.57;2.40;;;16.70;99.90;;;;;;472936;250;28889;-80
2023/07/13 06:31:25;;;;;;;4.77;2.17;;;16.70;99.90;;;;;;472953;251;28865;-80
2023/07/13 06:33:26;;;;;;;4.27;2.40;;;16.80;99.90;;;;;;472984;250;28786;-78
2023/07/13 06:35:27;;;;;;;2.90;2.27;;;16.90;99.90;;;;;;472949;250;28912;-78
2023/07/13 06:37:29;;;;;;;2.07;1.70;;;16.90;99.90;;;;;;472940;250;28820;-81
2023/07/13 06:39:30;;;;;;;2.73;2.20;;;16.90;99.90;;;;;;472907;250;28915;-81
2023/07/13 06:41:32;;;;;;;1.90;1.80;;;17.00;99.90;;;;;;472991;250;28841;-79
2023/07/13 06:43:32;;;;;;;3.80;1.90;;;17.10;99.90;;;;;;472925;250;30417;-80
2023/07/13 06:45:34;;;;;;;3.50;1.93;;;17.20;99.90;;;;;;472929;250;29335;-81
2023/07/13 06:47:35;;;;;;;2.43;1.90;;;17.20;99.90;;;;;;472943;250;29318;-81
2023/07/13 06:49:36;;;;;;;2.03;1.83;;;17.40;99.90;;;;;;472942;250;29298;-80
2023/07/13 06:51:37;;;;;;;2.90;2.20;;;17.50;99.90;;;;;;472983;250;28835;-78
2023/07/13 06:53:39;;;;;;;2.10;1.90;;;17.70;99.90;;;;;;472943;250;28816;-80
2023/07/13 06:55:40;;;;;;;3.97;2.07;;;18.00;99.90;;;;;;472960;250;28839;-82
2023/07/13 06:57:41;;;;;;;3.23;1.87;;;18.20;99.90;;;;;;472980;250;28904;-81
2023/07/13 06:59:42;;;;;;;2.07;1.87;;;18.40;99.90;;;;;;472958;251;28896;-81
2023/07/13 07:01:44;;;;;;;3.53;2.00;;;18.30;99.90;;;;;;472992;250;28931;-81
2023/07/13 07:03:45;;;;;;;3.63;1.87;;;18.20;99.90;;;;;;473003;250;28862;-81
2023/07/13 07:05:46;;;;;;;3.57;1.73;;;18.10;99.90;;;;;;472983;250;28925;-79
2023/07/13 07:07:47;;;;;;;4.53;1.90;;;17.90;99.90;;;;;;472975;250;29211;-81
2023/07/13 07:09:49;;;;;;;5.17;1.87;;;17.90;99.90;;;;;;472966;250;29311;-80
2023/07/13 07:11:50;;;;;;;2.97;1.90;;;17.90;99.90;;;;;;472983;250;29299;-80
2023/07/13 07:13:51;;;;;;;2.47;1.70;;;18.00;99.90;;;;;;472984;250;29232;-80
2023/07/13 07:15:52;;;;;;;3.80;1.73;;;18.10;99.90;;;;;;472971;250;28815;-81
2023/07/13 07:17:54;;;;;;;4.10;1.53;;;18.20;99.90;;;;;;472837;250;28793;-81
2023/07/13 07:19:55;;;;;;;2.70;1.70;;;18.20;99.90;;;;;;472969;250;28886;-80
2023/07/13 07:21:56;;;;;;;2.57;1.90;;;18.20;99.90;;;;;;472925;250;28895;-80
2023/07/13 07:23:59;;;;;;;3.73;1.90;;;18.20;99.90;;;;;;472974;250;28859;-81
2023/07/13 07:25:59;;;;;;;5.73;2.33;;;18.20;99.90;;;;;;472903;251;28837;-81
2023/07/13 07:28:00;;;;;;;3.30;1.77;;;18.20;99.90;;;;;;472969;250;28899;-82
2023/07/13 07:30:01;;;;;;;6.73;2.30;;;18.20;99.90;;;;;;473010;250;28786;-81
2023/07/13 07:32:02;;;;;;;1.70;1.60;;;18.20;99.90;;;;;;473013;250;28905;-80
2023/07/13 07:34:04;;;;;;;2.03;1.83;;;18.20;99.90;;;;;;472975;250;29402;-82
2023/07/13 07:36:05;;;;;;;2.50;1.80;;;18.30;99.90;;;;;;472960;250;29334;-80
2023/07/13 07:38:09;;;;;;;2.57;2.10;;;18.40;99.90;;;;;;472935;251;30140;-82
2023/07/13 07:40:07;;;;;;;5.57;2.20;;;18.40;99.90;;;;;;472851;251;28879;-80
2023/07/13 07:42:09;;;;;;;2.80;1.80;;;18.50;99.90;;;;;;473022;250;28834;-79
2023/07/13 07:44:10;;;;;;;4.20;1.80;;;18.70;99.90;;;;;;473038;250;28771;-79
2023/07/13 07:46:11;;;;;;;5.60;1.70;;;18.80;99.90;;;;;;472984;250;28928;-81
2023/07/13 07:48:12;;;;;;;2.90;2.20;;;18.90;99.90;;;;;;472964;250;28808;-79
2023/07/13 07:50:14;;;;;;;4.30;1.80;;;18.80;99.90;;;;;;473025;250;28856;-81
2023/07/13 07:52:15;;;;;;;2.70;1.60;;;18.80;99.90;;;;;;473006;250;28905;-79
2023/07/13 07:54:16;;;;;;;2.87;2.00;;;18.70;99.90;;;;;;473028;250;28910;-81
2023/07/13 07:56:18;;;;;;;4.80;2.00;;;18.80;99.90;;;;;;473020;250;28817;-83
2023/07/13 07:58:19;;;;;;;5.80;1.77;;;18.80;99.90;;;;;;473066;250;29339;-80
2023/07/13 08:00:20;;;;;;;3.70;2.07;;;19.00;99.90;;;;;;473068;250;29227;-83
2023/07/13 08:02:21;;;;;;;8.20;2.20;;;19.10;99.90;;;;;;473029;250;29375;-80
2023/07/13 08:04:22;;;;;;;8.97;2.10;;;19.30;99.90;;;;;;472987;250;29398;-81
2023/07/13 08:06:24;;;;;;;3.37;2.10;;;19.60;99.90;;;;;;472996;250;28822;-80
2023/07/13 08:08:25;;;;;;;2.87;1.60;;;20.00;99.90;;;;;;473027;250;28865;-81
2023/07/13 08:10:26;;;;;;;3.37;1.90;;;20.40;99.90;;;;;;473021;250;28771;-81
2023/07/13 08:12:27;;;;;;;2.80;1.70;;;20.70;99.90;;;;;;473015;250;28852;-81
2023/07/13 08:14:29;;;;;;;3.90;2.40;;;20.90;99.90;;;;;;473003;250;28897;-82
2023/07/13 08:16:32;;;;;;;2.97;1.70;;;21.00;99.90;;;;;;473009;250;28809;-80
2023/07/13 08:18:31;;;;;;;4.30;1.90;;;21.00;99.90;;;;;;472895;251;28811;-80
2023/07/13 08:20:33;;;;;;;2.50;1.83;;;20.90;99.90;;;;;;472969;250;28785;-81
2023/07/13 08:22:35;;;;;;;6.30;1.90;;;20.80;99.90;;;;;;473003;250;29350;-82
2023/07/13 08:24:35;;;;;;;3.10;1.80;;;20.70;99.90;;;;;;472973;251;29352;-81
2023/07/13 08:26:36;;;;;;;2.90;1.60;;;20.70;99.90;;;;;;473027;250;29298;-82
2023/07/13 08:28:37;;;;;;;3.53;1.80;;;20.70;99.90;;;;;;473073;250;29289;-81
2023/07/13 08:30:39;;;;;;;2.43;1.90;;;20.70;99.90;;;;;;473054;250;28832;-82
2023/07/13 08:32:40;;;;;;;2.63;1.70;;;20.80;99.90;;;;;;473009;250;28887;-82
2023/07/13 08:34:41;;;;;;;5.20;2.00;;;20.90;99.90;;;;;;472981;250;28784;-83
2023/07/13 08:36:42;;;;;;;5.30;1.70;;;20.90;99.90;;;;;;472963;250;28832;-82
2023/07/13 08:38:44;;;;;;;4.00;1.80;;;20.90;99.90;;;;;;473021;250;28856;-82
2023/07/13 08:40:45;;;;;;;2.43;1.73;;;20.80;99.90;;;;;;473017;250;28880;-82
2023/07/13 08:42:46;;;;;;;2.63;1.73;;;20.70;99.90;;;;;;472994;250;28829;-81
2023/07/13 08:44:47;;;;;;;4.67;1.97;;;20.70;99.90;;;;;;472966;250;28860;-81
2023/07/13 08:46:49;;;;;;;2.50;1.70;;;20.80;99.90;;;;;;472994;250;28828;-82
2023/07/13 08:48:50;;;;;;;5.90;2.30;;;21.00;99.90;;;;;;473016;250;29294;-81
2023/07/13 08:50:51;;;;;;;3.93;1.80;;;21.10;99.90;;;;;;472995;250;29350;-81
2023/07/13 08:52:52;;;;;;;2.97;1.70;;;21.20;99.90;;;;;;472978;250;29297;-80
2023/07/13 08:54:54;;;;;;;23.87;2.20;;;21.20;99.90;;;;;;473016;250;28781;-81
2023/07/13 08:56:55;;;;;;;3.83;1.57;;;21.30;99.90;;;;;;473022;250;28872;-80
2023/07/13 08:58:56;;;;;;;6.33;2.00;;;21.30;99.90;;;;;;473030;250;28816;-82
2023/07/13 09:00:58;;;;;;;2.10;1.70;;;21.00;99.90;;;;;;472995;250;28793;-82
2023/07/13 09:02:59;;;;;;;3.23;1.90;;;21.00;99.90;;;;;;472985;250;28895;-81
2023/07/13 09:05:00;;;;;;;2.13;1.77;;;21.00;99.90;;;;;;472992;250;28879;-82
2023/07/13 09:07:01;;;;;;;3.40;1.80;;;20.90;99.90;;;;;;472983;250;28768;-81
2023/07/13 09:09:03;;;;;;;2.43;1.47;;;20.70;99.90;;;;;;472988;251;28826;-80
2023/07/13 09:11:04;;;;;;;3.53;2.00;;;20.70;99.90;;;;;;472935;251;28902;-81
2023/07/13 09:13:05;;;;;;;3.40;1.77;;;20.60;99.90;;;;;;472991;250;29279;-81
2023/07/13 09:15:06;;;;;;;3.60;1.97;;;20.60;99.90;;;;;;472968;250;30022;-81
2023/07/13 09:17:07;;;;;;;4.93;1.70;;;20.60;99.90;;;;;;473000;250;29256;-81
2023/07/13 09:19:09;;;;;;;1.97;1.53;;;20.50;99.90;;;;;;473014;250;28828;-80
2023/07/13 09:21:10;;;;;;;3.00;1.50;;;20.60;99.90;;;;;;472984;250;28787;-82
2023/07/13 09:23:11;;;;;;;5.97;1.70;;;20.90;99.90;;;;;;473042;250;28816;-80
2023/07/13 09:25:12;;;;;;;2.23;1.70;;;21.00;99.90;;;;;;473041;250;28800;-81
2023/07/13 09:27:17;;;;;;;4.40;2.30;;;21.10;99.90;;;;;;473028;250;28780;-80
2023/07/13 09:29:15;;;;;;;2.30;1.30;;;21.20;99.90;;;;;;472866;251;28830;-80
2023/07/13 09:31:16;;;;;;;3.30;1.77;;;21.20;99.90;;;;;;473018;250;28805;-81
2023/07/13 09:33:18;;;;;;;4.30;1.90;;;21.20;99.90;;;;;;473021;250;28896;-80
2023/07/13 09:35:19;;;;;;;2.20;1.40;;;21.30;99.90;;;;;;472932;250;28836;-81
2023/07/13 09:37:20;;;;;;;5.00;1.90;;;21.20;99.90;;;;;;473023;250;29316;-80
2023/07/13 09:39:21;;;;;;;4.67;1.83;;;21.10;99.90;;;;;;473006;251;29403;-80
2023/07/13 09:41:23;;;;;;;3.90;1.73;;;21.30;99.90;;;;;;473020;250;29358;-81
2023/07/13 09:43:24;;;;;;;3.23;1.90;;;21.50;99.90;;;;;;473020;250;28895;-81
2023/07/13 09:45:25;;;;;;;3.77;1.90;;;21.50;99.90;;;;;;473030;250;28816;-80
2023/07/13 09:47:29;;;;;;;8.80;2.07;;;21.40;99.90;;;;;;473008;250;28786;-81
2023/07/13 09:49:30;;;;;;;7.77;2.20;;;21.50;99.90;;;;;;473002;250;28840;-80
2023/07/13 09:51:32;;;;;;;4.00;1.87;;;21.60;99.90;;;;;;472989;250;28856;-80
2023/07/13 09:53:33;;;;;;;1.97;1.47;;;21.60;99.90;;;;;;472970;250;28888;-80
2023/07/13 09:55:35;;;;;;;1.97;1.70;;;21.60;99.90;;;;;;473003;250;28828;-82
2023/07/13 09:57:35;;;;;;;2.80;2.00;;;21.40;99.90;;;;;;473010;250;29348;-80
2023/07/13 09:59:37;;;;;;;2.90;1.60;;;21.40;99.90;;;;;;473011;250;29236;-81
2023/07/13 10:01:38;;;;;;;3.03;1.50;;;21.30;99.90;;;;;;473014;250;29386;-81
2023/07/13 10:03:41;;;;;;;7.20;2.03;;;21.30;99.90;;;;;;472976;250;29233;-81
2023/07/13 10:05:41;;;;;;;2.20;1.40;;;21.30;99.90;;;;;;472888;251;28877;-81
2023/07/13 10:07:43;;;;;;;4.07;1.87;;;21.20;99.90;;;;;;473035;250;28881;-81
2023/07/13 10:09:43;;;;;;;5.03;1.90;;;21.20;99.90;;;;;;472870;251;28782;-82
2023/07/13 10:11:44;;;;;;;4.77;1.87;;;21.40;99.90;;;;;;473030;250;28821;-80
2023/07/13 10:13:45;;;;;;;1.77;1.40;;;21.50;99.90;;;;;;473029;250;28922;-82
2023/07/13 10:15:49;;;;;;;7.03;1.60;;;21.50;99.90;;;;;;473030;250;28851;-81
2023/07/13 10:17:48;;;;;;;4.27;1.90;;;21.40;99.90;;;;;;472836;251;28807;-79
2023/07/13 10:19:49;;;;;;;4.27;1.57;;;21.10;99.90;;;;;;472998;250;28960;-82
2023/07/13 10:21:51;;;;;;;2.30;1.67;;;20.90;99.90;;;;;;473015;250;28840;-82
2023/07/13 10:23:52;;;;;;;3.97;1.73;;;20.90;99.90;;;;;;472999;250;29465;-82
2023/07/13 10:25:53;;;;;;;3.80;1.80;;;20.90;99.90;;;;;;472993;250;29350;-81
2023/07/13 10:27:54;;;;;;;3.90;1.90;;;20.80;99.90;;;;;;473016;250;29330;-81
2023/07/13 10:29:56;;;;;;;5.30;1.90;;;20.80;99.90;;;;;;473016;250;28787;-81
2023/07/13 10:31:57;;;;;;;4.73;1.60;;;20.80;99.90;;;;;;473018;250;28843;-80